Time;durP1;ratioP1;P1;durP2;ratioP2;P2;SDS_P1;SDS_P2;PMS_P1;PMS_P2;Temp;Humidity;BMP_temperature;BMP_pressure;BME280_temperature;BME280_humidity;BME280_pressure;Samples;Min_cycle;Max_cycle;Signal;HPM_P1;HPM_P2
2022/06/11 00:00:12;;;;;;;2.45;1.90;;;21.90;53.70;;;;;;5014779;28;20212;-72
2022/06/11 00:02:39;;;;;;;2.05;1.95;;;21.90;53.70;;;;;;5013682;28;20320;-72
2022/06/11 00:05:08;;;;;;;2.55;2.00;;;21.90;53.70;;;;;;5013593;28;20207;-72
2022/06/11 00:07:35;;;;;;;2.10;1.90;;;21.90;53.70;;;;;;5013498;28;20735;-72
2022/06/11 00:10:04;;;;;;;2.92;2.22;;;21.80;53.60;;;;;;5013532;28;20275;-72
2022/06/11 00:12:32;;;;;;;2.22;2.03;;;21.80;53.60;;;;;;5013540;28;20217;-72
2022/06/11 00:14:59;;;;;;;2.35;1.90;;;21.80;53.70;;;;;;5013647;28;20201;-72
2022/06/11 00:17:26;;;;;;;2.10;2.00;;;21.80;53.80;;;;;;5014637;28;20201;-72
2022/06/11 00:19:53;;;;;;;2.00;1.90;;;21.80;53.90;;;;;;5013151;28;20689;-73
2022/06/11 00:22:21;;;;;;;2.50;2.30;;;21.80;53.90;;;;;;5013231;28;20213;-72
2022/06/11 00:24:48;;;;;;;2.30;2.10;;;21.80;54.00;;;;;;5014722;28;20192;-72
2022/06/11 00:27:16;;;;;;;2.00;1.90;;;21.70;53.80;;;;;;5013297;28;20204;-72
2022/06/11 00:29:43;;;;;;;2.40;2.20;;;21.80;53.90;;;;;;5013146;28;20220;-72
2022/06/11 00:32:11;;;;;;;3.13;1.80;;;21.70;53.80;;;;;;5013443;28;20188;-72
2022/06/11 00:34:39;;;;;;;2.30;2.20;;;21.80;53.90;;;;;;5013135;28;20200;-72
2022/06/11 00:37:06;;;;;;;2.30;2.10;;;21.70;53.80;;;;;;5013259;28;20569;-74
2022/06/11 00:39:35;;;;;;;2.28;2.08;;;21.80;53.80;;;;;;5013054;28;20227;-73
2022/06/11 00:42:05;;;;;;;2.17;2.08;;;21.70;53.90;;;;;;5012501;28;20205;-72
2022/06/11 00:44:33;;;;;;;2.15;1.95;;;21.70;53.90;;;;;;5014164;28;20207;-72
2022/06/11 00:47:01;;;;;;;2.28;2.10;;;21.60;53.70;;;;;;5014024;28;20691;-72
2022/06/11 00:49:34;;;;;;;2.30;2.00;;;21.60;53.60;;;;;;5014174;28;20212;-72
2022/06/11 00:52:09;;;;;;;1.92;1.83;;;21.70;53.70;;;;;;5012815;28;20233;-72
2022/06/11 00:54:36;;;;;;;2.63;2.10;;;21.60;53.70;;;;;;5014607;28;20203;-72
2022/06/11 00:57:04;;;;;;;2.58;2.38;;;21.70;53.70;;;;;;5012893;28;20197;-72
2022/06/11 00:59:37;;;;;;;2.30;2.10;;;21.60;53.60;;;;;;5012726;28;20227;-72
2022/06/11 01:02:04;;;;;;;2.25;2.05;;;21.70;53.70;;;;;;5014186;28;20193;-72
2022/06/11 01:04:36;;;;;;;3.00;2.42;;;21.60;53.60;;;;;;5013974;28;20203;-72
2022/06/11 01:07:11;;;;;;;2.20;2.10;;;21.70;53.80;;;;;;5012699;28;20304;-72
2022/06/11 01:09:40;;;;;;;2.15;2.05;;;21.70;54.30;;;;;;5014061;28;20586;-72
2022/06/11 01:12:13;;;;;;;2.10;2.00;;;21.60;53.70;;;;;;5012727;28;20193;-72
2022/06/11 01:14:45;;;;;;;1.90;1.80;;;21.70;53.70;;;;;;5012556;28;20193;-72
2022/06/11 01:17:18;;;;;;;2.17;2.08;;;21.60;53.60;;;;;;5012611;28;20192;-72
2022/06/11 01:20:07;;;;;;;2.10;1.90;;;21.60;53.70;;;;;;5012409;28;20227;-72
2022/06/11 01:22:47;;;;;;;2.00;1.90;;;21.60;53.70;;;;;;5012495;28;20212;-73
2022/06/11 01:25:20;;;;;;;2.40;2.03;;;21.60;54.30;;;;;;5012448;28;20642;-72
2022/06/11 01:27:55;;;;;;;2.30;2.10;;;21.60;53.70;;;;;;5014015;28;20176;-73
2022/06/11 01:30:25;;;;;;;2.03;1.92;;;21.60;53.70;;;;;;5012523;28;20315;-72
2022/06/11 01:32:57;;;;;;;1.98;1.88;;;21.60;53.70;;;;;;5012687;28;20197;-73
2022/06/11 01:35:31;;;;;;;2.30;2.10;;;21.60;53.70;;;;;;5012414;28;20219;-72
2022/06/11 01:38:03;;;;;;;2.20;2.05;;;21.60;53.80;;;;;;5013768;28;20179;-72
2022/06/11 01:40:38;;;;;;;2.90;2.22;;;21.50;53.70;;;;;;5012154;28;20224;-72
2022/06/11 01:43:14;;;;;;;2.20;2.10;;;21.60;53.80;;;;;;5012186;28;20240;-72
2022/06/11 01:45:42;;;;;;;2.42;2.22;;;21.60;53.70;;;;;;5012500;28;20236;-72
2022/06/11 01:48:13;;;;;;;2.20;2.10;;;21.50;53.70;;;;;;5013536;28;20200;-72
2022/06/11 01:50:42;;;;;;;1.90;1.80;;;21.50;53.80;;;;;;5012807;28;20227;-72
2022/06/11 01:53:45;;;;;;;2.00;1.90;;;21.50;53.90;;;;;;5013146;28;20576;-72
2022/06/11 01:56:31;;;;;;;2.20;2.00;;;21.50;53.70;;;;;;4921994;29;20202;-72
2022/06/11 01:59:26;;;;;;;3.22;2.20;;;21.50;53.70;;;;;;4984945;28;20310;-72
2022/06/11 02:02:04;;;;;;;2.05;1.95;;;21.50;53.90;;;;;;5016048;28;20258;-72
2022/06/11 02:04:37;;;;;;;2.20;2.00;;;21.50;54.00;;;;;;5017359;28;20205;-72
2022/06/11 02:07:06;;;;;;;2.00;1.90;;;21.50;53.90;;;;;;5016166;28;20240;-72
2022/06/11 02:09:37;;;;;;;2.30;2.17;;;21.50;53.80;;;;;;5015839;28;20227;-72
2022/06/11 02:12:08;;;;;;;2.17;1.98;;;21.50;53.80;;;;;;5016084;28;20584;-72
2022/06/11 02:14:37;;;;;;;2.22;2.13;;;21.40;53.60;;;;;;5016071;28;20193;-72
2022/06/11 02:17:08;;;;;;;2.40;2.17;;;21.50;53.90;;;;;;5015688;28;20296;-72
2022/06/11 02:19:39;;;;;;;2.20;2.10;;;21.40;53.70;;;;;;5016059;28;20224;-72
2022/06/11 02:22:07;;;;;;;2.00;1.90;;;21.40;53.80;;;;;;5017590;28;20637;-72
2022/06/11 02:24:36;;;;;;;1.98;1.88;;;21.40;53.80;;;;;;5016554;28;20213;-72
2022/06/11 02:27:06;;;;;;;2.15;1.95;;;21.40;53.80;;;;;;5016785;28;20247;-72
2022/06/11 02:29:33;;;;;;;2.28;2.15;;;21.40;53.80;;;;;;5015640;28;20228;-72
2022/06/11 02:32:06;;;;;;;2.40;2.20;;;21.40;53.80;;;;;;5015573;28;20688;-72
2022/06/11 02:34:33;;;;;;;2.40;2.30;;;21.40;53.90;;;;;;5015650;28;20193;-72
2022/06/11 02:37:05;;;;;;;2.33;2.13;;;21.30;53.80;;;;;;5015363;28;20733;-72
2022/06/11 02:39:34;;;;;;;3.03;2.20;;;21.30;53.80;;;;;;5015329;28;20224;-72
2022/06/11 02:42:02;;;;;;;2.17;2.00;;;21.30;53.80;;;;;;5015362;28;20204;-72
2022/06/11 02:44:29;;;;;;;2.35;2.15;;;21.30;53.90;;;;;;5015072;28;20221;-72
2022/06/11 02:46:56;;;;;;;2.45;2.00;;;21.30;53.90;;;;;;5015395;28;20220;-72
2022/06/11 02:49:27;;;;;;;2.15;2.05;;;21.30;53.90;;;;;;5015089;28;20221;-72
2022/06/11 02:51:55;;;;;;;2.30;2.10;;;21.30;53.90;;;;;;5015235;28;20200;-72
2022/06/11 02:54:23;;;;;;;2.08;1.98;;;21.30;54.10;;;;;;5015138;28;20247;-72
2022/06/11 02:56:51;;;;;;;2.38;2.20;;;21.20;53.90;;;;;;5139732;23;20328;-72
2022/06/11 02:59:18;;;;;;;2.33;2.20;;;21.30;54.00;;;;;;5014914;28;20591;-72
2022/06/11 03:01:45;;;;;;;1.85;1.75;;;21.30;54.00;;;;;;5016556;28;20196;-72
2022/06/11 03:04:12;;;;;;;2.03;1.92;;;21.20;53.90;;;;;;5016079;28;20225;-72
2022/06/11 03:06:42;;;;;;;2.20;2.05;;;21.20;53.90;;;;;;5015317;28;20197;-72
2022/06/11 03:09:09;;;;;;;3.35;2.10;;;21.20;54.40;;;;;;5015312;28;20216;-73
2022/06/11 03:11:36;;;;;;;2.40;2.20;;;21.20;54.40;;;;;;5014842;28;20203;-73
2022/06/11 03:14:03;;;;;;;2.13;2.03;;;21.20;53.90;;;;;;5015204;28;20205;-72
2022/06/11 03:16:32;;;;;;;2.25;2.10;;;21.20;53.80;;;;;;5015146;28;20291;-72
2022/06/11 03:18:59;;;;;;;2.20;2.10;;;21.20;53.40;;;;;;5016277;28;20693;-72
2022/06/11 03:21:26;;;;;;;2.28;2.08;;;21.20;53.70;;;;;;5016183;28;20196;-72
2022/06/11 03:23:55;;;;;;;2.50;2.30;;;21.20;53.90;;;;;;5017413;28;20272;-72
2022/06/11 03:26:22;;;;;;;2.10;1.90;;;21.20;53.80;;;;;;5016407;28;20194;-72
2022/06/11 03:28:49;;;;;;;2.20;2.00;;;21.30;53.90;;;;;;5015002;28;20221;-72
2022/06/11 03:31:16;;;;;;;2.58;2.08;;;21.30;54.10;;;;;;5015019;28;20680;-72
2022/06/11 03:33:43;;;;;;;2.25;2.00;;;21.30;53.90;;;;;;5015047;28;20716;-72
2022/06/11 03:36:12;;;;;;;2.83;2.22;;;21.30;53.90;;;;;;5014697;28;20549;-72
2022/06/11 03:38:39;;;;;;;2.15;2.03;;;21.40;53.50;;;;;;5014723;28;20201;-72
2022/06/11 03:41:08;;;;;;;2.15;2.05;;;21.40;53.30;;;;;;5014574;28;20666;-72
2022/06/11 03:43:36;;;;;;;2.20;2.00;;;21.40;53.20;;;;;;5014959;28;20620;-72
2022/06/11 03:46:02;;;;;;;2.40;2.20;;;21.40;53.30;;;;;;5014825;28;20721;-72
2022/06/11 03:48:30;;;;;;;2.42;2.22;;;21.50;53.20;;;;;;5015485;28;20200;-72
2022/06/11 03:50:57;;;;;;;2.05;1.95;;;21.50;53.20;;;;;;5014164;28;20214;-72
2022/06/11 03:53:25;;;;;;;2.30;2.10;;;21.50;53.40;;;;;;5014074;28;20197;-72
2022/06/11 03:55:52;;;;;;;2.22;2.03;;;21.50;53.40;;;;;;5013879;28;20238;-72
2022/06/11 03:58:20;;;;;;;2.50;2.30;;;21.50;53.30;;;;;;5014011;28;20256;-72
2022/06/11 04:03:32;;;;;;;2.25;2.08;;;21.50;53.20;;;;;;5013857;28;20217;-72
2022/06/11 04:06:00;;;;;;;2.20;2.10;;;21.60;53.90;;;;;;5015087;28;20185;-72
2022/06/11 04:08:27;;;;;;;2.20;2.03;;;21.60;53.20;;;;;;5014093;28;20197;-72
2022/06/11 04:10:56;;;;;;;2.25;2.10;;;21.60;53.60;;;;;;5013683;28;20200;-72
2022/06/11 04:13:25;;;;;;;1.95;1.83;;;21.60;53.00;;;;;;5013740;28;20643;-72
2022/06/11 04:15:52;;;;;;;3.05;2.17;;;21.60;53.00;;;;;;5014052;28;20201;-72
2022/06/11 04:18:25;;;;;;;2.10;1.92;;;21.60;53.00;;;;;;5013685;28;20211;-72
2022/06/11 04:20:53;;;;;;;2.60;2.40;;;21.60;52.90;;;;;;5013634;28;20547;-72
2022/06/11 04:23:20;;;;;;;2.20;2.08;;;21.70;52.90;;;;;;5013539;28;20220;-72
2022/06/11 04:25:47;;;;;;;2.25;2.10;;;21.70;52.80;;;;;;5013417;28;20197;-72
2022/06/11 04:28:14;;;;;;;2.22;2.03;;;21.70;52.80;;;;;;5013709;28;20578;-72
2022/06/11 04:30:42;;;;;;;2.00;1.90;;;21.70;52.80;;;;;;5013399;28;20236;-72
2022/06/11 04:33:09;;;;;;;2.40;2.20;;;21.70;52.70;;;;;;5013479;28;20201;-72
2022/06/11 04:35:36;;;;;;;3.05;2.17;;;21.70;52.80;;;;;;5013687;28;20250;-72
2022/06/11 04:38:03;;;;;;;2.25;2.05;;;21.70;52.80;;;;;;5013455;28;20231;-72
2022/06/11 04:40:30;;;;;;;2.00;1.90;;;21.70;52.80;;;;;;5014470;28;20221;-72
2022/06/11 04:42:57;;;;;;;2.35;2.15;;;21.80;52.80;;;;;;5013054;28;20267;-72
2022/06/11 04:45:24;;;;;;;2.13;2.03;;;22.00;52.70;;;;;;5013060;28;20709;-72
2022/06/11 04:47:53;;;;;;;2.13;1.92;;;22.20;52.30;;;;;;5013093;28;20677;-72
2022/06/11 04:50:21;;;;;;;2.20;2.00;;;22.40;51.90;;;;;;5012930;28;20720;-72
2022/06/11 04:52:48;;;;;;;2.28;2.08;;;22.60;51.50;;;;;;5012844;28;20292;-72
2022/06/11 04:55:15;;;;;;;2.00;1.90;;;22.70;51.10;;;;;;5014444;28;20195;-72
2022/06/11 04:57:43;;;;;;;2.35;2.10;;;22.90;50.60;;;;;;5014122;28;20189;-72
2022/06/11 05:00:11;;;;;;;2.65;2.10;;;23.10;50.30;;;;;;5012877;28;20728;-72
2022/06/11 05:02:39;;;;;;;2.78;2.17;;;23.30;50.00;;;;;;5012772;28;20231;-72
2022/06/11 05:05:09;;;;;;;2.38;2.20;;;23.40;49.60;;;;;;5012665;28;20212;-72
2022/06/11 05:07:36;;;;;;;2.95;2.20;;;23.50;49.20;;;;;;5014075;28;20181;-72
2022/06/11 05:10:04;;;;;;;2.20;2.00;;;23.60;48.90;;;;;;5012576;28;20220;-72
2022/06/11 05:12:31;;;;;;;2.38;1.80;;;23.80;48.80;;;;;;5012685;28;20277;-72
2022/06/11 05:14:58;;;;;;;2.10;2.00;;;23.90;48.60;;;;;;5012519;28;20680;-72
2022/06/11 05:17:25;;;;;;;2.40;2.20;;;24.00;48.30;;;;;;5012664;28;20574;-72
2022/06/11 05:19:52;;;;;;;2.10;2.00;;;24.10;48.00;;;;;;5012638;28;20311;-72
2022/06/11 05:22:21;;;;;;;2.30;2.10;;;24.20;47.90;;;;;;5013710;28;20192;-72
2022/06/11 05:24:48;;;;;;;2.88;2.15;;;24.30;47.60;;;;;;5012178;28;20644;-72
2022/06/11 05:27:17;;;;;;;2.42;2.22;;;24.40;47.50;;;;;;5013467;28;20213;-73
2022/06/11 05:29:48;;;;;;;2.50;2.30;;;24.50;47.20;;;;;;5013428;28;20589;-72
2022/06/11 05:32:16;;;;;;;2.97;2.30;;;24.60;47.10;;;;;;5013756;28;20185;-72
2022/06/11 05:34:43;;;;;;;2.13;1.98;;;24.60;46.90;;;;;;5012290;28;20287;-72
2022/06/11 05:37:10;;;;;;;2.47;2.30;;;24.70;46.70;;;;;;5012358;28;20295;-73
2022/06/11 05:39:39;;;;;;;2.05;1.90;;;24.80;46.50;;;;;;5013574;28;20567;-72
2022/06/11 05:42:06;;;;;;;2.25;2.05;;;24.90;46.40;;;;;;5012171;28;20247;-72
2022/06/11 05:44:33;;;;;;;2.05;1.85;;;25.00;46.30;;;;;;5013711;28;20228;-72
2022/06/11 05:47:00;;;;;;;2.17;1.90;;;25.10;46.10;;;;;;5012123;28;20192;-72
2022/06/11 05:49:29;;;;;;;2.50;2.10;;;25.10;46.00;;;;;;5013325;28;20219;-72
2022/06/11 05:51:58;;;;;;;2.30;2.10;;;25.20;45.80;;;;;;5012243;28;20204;-72
2022/06/11 05:54:27;;;;;;;2.05;1.95;;;25.20;45.70;;;;;;5013462;28;20191;-72
2022/06/11 05:56:56;;;;;;;1.90;1.80;;;25.30;45.60;;;;;;5011981;28;20270;-72
2022/06/11 05:59:25;;;;;;;2.22;1.88;;;25.40;45.50;;;;;;5012237;28;20221;-72
2022/06/11 06:01:53;;;;;;;1.98;1.88;;;25.40;45.30;;;;;;5012045;28;20662;-72
2022/06/11 06:04:19;;;;;;;1.95;1.85;;;25.50;45.20;;;;;;5012035;28;20216;-72
2022/06/11 06:06:47;;;;;;;2.00;1.80;;;25.60;45.00;;;;;;5012035;28;20234;-72
2022/06/11 06:09:14;;;;;;;1.90;1.80;;;25.60;45.00;;;;;;5012081;28;20698;-72
2022/06/11 06:11:40;;;;;;;2.05;1.83;;;25.70;44.90;;;;;;5013261;28;20193;-72
2022/06/11 06:14:09;;;;;;;2.88;1.90;;;25.80;44.80;;;;;;5013259;28;20287;-72
2022/06/11 06:16:36;;;;;;;1.70;1.60;;;25.80;44.60;;;;;;5012027;28;20200;-72
2022/06/11 06:19:03;;;;;;;1.83;1.70;;;25.90;44.60;;;;;;5011950;28;20213;-72
2022/06/11 06:21:31;;;;;;;1.95;1.77;;;25.90;44.40;;;;;;5011909;28;20205;-72
2022/06/11 06:23:58;;;;;;;2.22;1.90;;;26.00;44.30;;;;;;5012963;28;20209;-72
2022/06/11 06:26:25;;;;;;;2.60;1.80;;;26.10;44.30;;;;;;5011871;28;20201;-72
2022/06/11 06:28:53;;;;;;;1.73;1.63;;;26.10;44.10;;;;;;5013026;28;20592;-72
2022/06/11 06:31:21;;;;;;;1.60;1.50;;;26.20;43.90;;;;;;5013330;28;20193;-72
2022/06/11 06:33:50;;;;;;;2.05;1.88;;;26.30;43.80;;;;;;5011794;28;20283;-72
2022/06/11 06:36:17;;;;;;;1.80;1.70;;;26.40;43.70;;;;;;5011704;28;20228;-72
2022/06/11 06:38:44;;;;;;;1.90;1.80;;;26.40;43.50;;;;;;5011660;28;20761;-72
2022/06/11 06:41:12;;;;;;;1.80;1.70;;;26.50;44.00;;;;;;5015273;28;20251;-72
2022/06/11 06:43:39;;;;;;;1.80;1.70;;;26.50;43.20;;;;;;5015343;28;20197;-72
2022/06/11 06:46:06;;;;;;;2.05;1.95;;;26.60;43.10;;;;;;5015091;28;20681;-72
2022/06/11 06:48:34;;;;;;;1.70;1.60;;;26.60;43.00;;;;;;5015171;28;20192;-72
2022/06/11 06:51:02;;;;;;;2.35;1.77;;;26.70;42.90;;;;;;5015108;28;20204;-72
2022/06/11 06:53:29;;;;;;;1.77;1.67;;;26.70;42.70;;;;;;5015136;28;20248;-72
2022/06/11 06:55:56;;;;;;;1.80;1.70;;;26.80;42.70;;;;;;5016196;28;20231;-73
2022/06/11 06:58:23;;;;;;;1.90;1.80;;;26.90;42.60;;;;;;5015110;28;20228;-72
2022/06/11 07:00:50;;;;;;;1.80;1.70;;;26.90;42.40;;;;;;5015051;28;20622;-72
2022/06/11 07:03:17;;;;;;;1.77;1.67;;;27.00;42.40;;;;;;5014833;28;20279;-72
2022/06/11 07:05:46;;;;;;;1.70;1.60;;;27.00;42.30;;;;;;5014919;28;20319;-72
2022/06/11 07:08:13;;;;;;;1.83;1.73;;;27.00;42.10;;;;;;5015050;28;20283;-72
2022/06/11 07:10:40;;;;;;;1.60;1.50;;;27.10;42.00;;;;;;5015056;28;20227;-72
2022/06/11 07:13:07;;;;;;;1.50;1.40;;;27.10;41.90;;;;;;5014761;28;20299;-73
2022/06/11 07:15:34;;;;;;;1.70;1.60;;;27.20;42.00;;;;;;5015032;28;20192;-73
2022/06/11 07:18:02;;;;;;;1.80;1.70;;;27.20;42.00;;;;;;5015006;28;20283;-72
2022/06/11 07:20:30;;;;;;;2.05;1.88;;;27.30;42.00;;;;;;5015597;28;20224;-72
2022/06/11 07:23:01;;;;;;;1.88;1.77;;;27.30;41.70;;;;;;5016117;28;20720;-73
2022/06/11 07:25:28;;;;;;;1.98;1.70;;;27.30;42.00;;;;;;5014686;28;20208;-73
2022/06/11 07:27:58;;;;;;;1.90;1.80;;;27.40;41.50;;;;;;5016184;28;20195;-74
2022/06/11 07:30:26;;;;;;;1.55;1.45;;;27.40;41.40;;;;;;5014825;28;20224;-72
2022/06/11 07:35:21;;;;;;;1.90;1.80;;;27.50;41.30;;;;;;5013884;28;20222;-73
2022/06/11 07:37:49;;;;;;;2.13;1.90;;;27.50;41.30;;;;;;5166392;23;20239;-72
2022/06/11 07:40:18;;;;;;;2.00;1.90;;;27.50;41.50;;;;;;5015945;28;20212;-73
2022/06/11 07:42:45;;;;;;;2.53;2.28;;;27.50;41.60;;;;;;5016954;28;20200;-72
2022/06/11 07:45:12;;;;;;;4.22;1.90;;;27.50;41.80;;;;;;5015582;28;20220;-73
2022/06/11 07:47:54;;;;;;;2.33;1.88;;;27.50;41.90;;;;;;5016579;28;20657;-72
2022/06/11 07:50:23;;;;;;;2.53;2.15;;;27.40;42.10;;;;;;5014307;28;20228;-72
2022/06/11 07:52:50;;;;;;;3.03;2.47;;;27.50;41.80;;;;;;5124203;23;20298;-72
2022/06/11 07:55:18;;;;;;;3.03;2.20;;;27.40;42.30;;;;;;5015394;28;20192;-73
2022/06/11 07:57:45;;;;;;;3.83;2.25;;;27.40;42.10;;;;;;5015514;28;20665;-73
2022/06/11 08:02:48;;;;;;;2.60;2.17;;;27.50;42.50;;;;;;5034171;23;20228;-73
2022/06/11 08:05:15;;;;;;;4.50;2.15;;;27.50;42.30;;;;;;5092950;23;20301;-74
2022/06/11 08:07:42;;;;;;;2.50;2.10;;;27.60;42.20;;;;;;5171926;23;20232;-73
2022/06/11 08:10:10;;;;;;;3.17;2.28;;;27.50;42.60;;;;;;5015331;28;20310;-73
2022/06/11 08:12:38;;;;;;;2.60;2.40;;;27.50;42.20;;;;;;5014241;28;20302;-73
2022/06/11 08:15:06;;;;;;;2.80;2.60;;;27.60;42.20;;;;;;5015449;28;20187;-74
2022/06/11 08:17:34;;;;;;;3.45;2.10;;;27.70;42.30;;;;;;5115788;23;20625;-72
2022/06/11 08:20:01;;;;;;;3.05;2.30;;;27.70;41.90;;;;;;5169926;23;20231;-75
2022/06/11 08:28:01;;;;;;;38.65;20.88;;;27.80;42.00;;;;;;5020796;23;20272;-68
2022/06/11 08:30:30;;;;;;;36.78;18.17;;;27.80;42.60;;;;;;5221166;23;20316;-73
2022/06/11 08:32:57;;;;;;;33.25;17.80;;;27.90;42.40;;;;;;5037835;23;20244;-73
2022/06/11 08:35:26;;;;;;;22.60;13.50;;;27.90;42.10;;;;;;5014739;28;20197;-73
2022/06/11 08:37:53;;;;;;;12.98;6.78;;;27.70;42.30;;;;;;5013664;28;20228;-73
2022/06/11 08:40:26;;;;;;;12.02;6.05;;;27.80;41.90;;;;;;5014801;28;20224;-73
2022/06/11 08:42:59;;;;;;;8.95;5.30;;;27.80;41.60;;;;;;5040967;23;20598;-68
2022/06/11 08:45:30;;;;;;;8.40;4.97;;;27.80;42.20;;;;;;4994554;28;20606;-67
2022/06/11 08:48:00;;;;;;;9.93;6.13;;;27.90;42.10;;;;;;4994703;28;20201;-67
2022/06/11 08:50:29;;;;;;;4.75;3.42;;;28.00;41.60;;;;;;4994531;28;20295;-67
2022/06/11 08:52:56;;;;;;;5.03;3.00;;;28.00;41.50;;;;;;4996709;28;20239;-68
2022/06/11 08:55:23;;;;;;;5.25;3.30;;;28.10;40.70;;;;;;4995400;28;20208;-67
2022/06/11 08:57:59;;;;;;;6.40;3.67;;;28.10;40.50;;;;;;4996657;28;20212;-67
2022/06/11 09:00:29;;;;;;;6.38;3.25;;;28.10;41.10;;;;;;4996993;28;20208;-67
2022/06/11 09:03:06;;;;;;;4.05;2.33;;;28.10;40.90;;;;;;4998169;28;20303;-68
2022/06/11 09:05:45;;;;;;;6.93;2.65;;;28.10;40.20;;;;;;4993912;28;20308;-69
2022/06/11 09:08:37;;;;;;;3.67;2.20;;;27.90;41.10;;;;;;4994117;28;20212;-66
2022/06/11 09:11:10;;;;;;;4.40;2.35;;;27.80;41.00;;;;;;4987941;28;20207;-66
2022/06/11 09:13:55;;;;;;;4.53;2.20;;;27.80;40.50;;;;;;4994376;28;20240;-66
2022/06/11 09:16:26;;;;;;;3.42;2.30;;;27.70;40.20;;;;;;4994246;28;20189;-67
2022/06/11 09:19:09;;;;;;;4.15;2.42;;;27.80;40.40;;;;;;4993981;28;20185;-66
2022/06/11 09:21:43;;;;;;;2.83;2.42;;;27.90;41.00;;;;;;4996282;28;20181;-67
2022/06/11 09:24:21;;;;;;;4.15;2.53;;;28.00;40.30;;;;;;4993994;28;20216;-67
2022/06/11 09:26:51;;;;;;;2.85;2.08;;;28.00;40.10;;;;;;4993999;28;20213;-67
2022/06/11 09:29:23;;;;;;;3.67;2.60;;;28.10;40.10;;;;;;4994155;28;20224;-68
2022/06/11 09:31:54;;;;;;;3.25;2.20;;;28.10;40.40;;;;;;4993263;28;20205;-68
2022/06/11 09:34:24;;;;;;;4.93;2.78;;;28.10;40.30;;;;;;4993563;28;20240;-67
2022/06/11 09:36:55;;;;;;;4.30;2.40;;;28.10;40.20;;;;;;4993192;28;20193;-68
2022/06/11 09:39:36;;;;;;;2.70;2.22;;;28.10;40.00;;;;;;4994113;28;20284;-68
2022/06/11 09:42:18;;;;;;;4.60;2.65;;;27.90;39.20;;;;;;4993257;28;20195;-69
2022/06/11 09:44:47;;;;;;;3.92;2.35;;;27.90;39.30;;;;;;4993411;28;20197;-68
2022/06/11 09:47:20;;;;;;;6.20;2.30;;;28.00;39.50;;;;;;4994008;28;20197;-68
2022/06/11 09:49:52;;;;;;;3.63;2.50;;;28.00;40.10;;;;;;4994595;28;20184;-68
2022/06/11 09:52:21;;;;;;;2.58;2.28;;;27.90;40.20;;;;;;4992700;28;20665;-68
2022/06/11 09:54:52;;;;;;;3.13;2.28;;;27.90;40.30;;;;;;4992739;28;20197;-68
2022/06/11 09:57:36;;;;;;;2.58;2.10;;;27.90;40.20;;;;;;4993038;28;20192;-68
2022/06/11 10:00:06;;;;;;;2.72;2.20;;;27.80;40.50;;;;;;4993013;28;20601;-68
2022/06/11 10:02:41;;;;;;;4.38;2.42;;;27.70;40.30;;;;;;4993047;28;20298;-68
2022/06/11 10:05:10;;;;;;;2.60;2.40;;;27.50;39.90;;;;;;4994232;28;20571;-67
2022/06/11 10:07:40;;;;;;;3.38;2.40;;;27.50;40.50;;;;;;4993392;28;20383;-68
2022/06/11 10:10:10;;;;;;;3.72;2.30;;;27.40;40.60;;;;;;4993897;28;20208;-68
2022/06/11 10:12:41;;;;;;;3.33;2.33;;;27.50;40.40;;;;;;4993502;28;20225;-68
2022/06/11 10:15:12;;;;;;;3.15;2.10;;;27.50;40.40;;;;;;4996698;28;20193;-68
2022/06/11 10:17:45;;;;;;;3.22;2.28;;;27.50;40.20;;;;;;4997317;28;20344;-68
2022/06/11 10:20:21;;;;;;;2.70;2.15;;;27.50;39.90;;;;;;4997500;28;20200;-68
2022/06/11 10:22:50;;;;;;;4.10;2.38;;;27.50;40.10;;;;;;4997454;28;20223;-68
2022/06/11 10:25:21;;;;;;;4.07;2.20;;;27.50;40.30;;;;;;4996845;28;20213;-68
2022/06/11 10:27:49;;;;;;;2.95;2.42;;;27.40;40.90;;;;;;4996629;28;20201;-68
2022/06/11 10:30:27;;;;;;;2.70;2.33;;;27.30;40.60;;;;;;4996566;28;20295;-68
2022/06/11 10:32:56;;;;;;;2.75;2.55;;;27.20;40.50;;;;;;4997795;28;20209;-68
2022/06/11 10:35:24;;;;;;;4.68;2.58;;;27.10;40.50;;;;;;4996307;28;20196;-67
2022/06/11 10:37:53;;;;;;;4.47;2.75;;;27.10;40.20;;;;;;4996430;28;20736;-68
2022/06/11 10:40:22;;;;;;;2.88;2.20;;;27.10;40.80;;;;;;4997124;28;20200;-67
2022/06/11 10:42:54;;;;;;;2.83;2.25;;;27.20;40.90;;;;;;5000321;28;20220;-66
2022/06/11 10:45:21;;;;;;;2.55;2.35;;;27.20;40.80;;;;;;5000193;28;20219;-68
2022/06/11 10:47:49;;;;;;;2.58;2.17;;;27.20;41.10;;;;;;4998240;28;20189;-67
2022/06/11 10:50:20;;;;;;;2.80;2.50;;;27.20;41.10;;;;;;4996705;28;20205;-68
2022/06/11 10:52:50;;;;;;;3.80;2.55;;;27.20;41.40;;;;;;4996612;28;20232;-67
2022/06/11 10:55:19;;;;;;;3.58;2.30;;;27.20;41.70;;;;;;4997779;28;20224;-67
2022/06/11 10:57:49;;;;;;;2.90;2.13;;;27.20;41.80;;;;;;4996449;28;20204;-67
2022/06/11 11:00:19;;;;;;;3.67;2.58;;;27.10;41.90;;;;;;4997732;28;20563;-67
2022/06/11 11:02:49;;;;;;;3.05;2.17;;;27.10;42.20;;;;;;4995802;28;20225;-67
2022/06/11 11:05:19;;;;;;;3.72;2.13;;;27.10;42.50;;;;;;4995706;28;20205;-67
2022/06/11 11:07:52;;;;;;;2.75;2.20;;;27.00;42.70;;;;;;4995521;28;20197;-68
2022/06/11 11:10:21;;;;;;;2.67;2.08;;;27.00;42.80;;;;;;4995950;28;20193;-66
2022/06/11 11:12:49;;;;;;;3.03;2.30;;;27.00;43.00;;;;;;4995604;28;20713;-68
2022/06/11 11:15:19;;;;;;;4.45;2.58;;;26.90;43.00;;;;;;4996783;28;20197;-66
2022/06/11 11:17:46;;;;;;;2.42;2.22;;;26.90;43.20;;;;;;4995415;28;20219;-67
2022/06/11 11:20:32;;;;;;;5.47;2.22;;;26.90;43.30;;;;;;4995492;28;20232;-67
2022/06/11 11:23:12;;;;;;;3.75;2.13;;;26.90;43.70;;;;;;4995203;28;20213;-67
2022/06/11 11:25:40;;;;;;;2.35;2.15;;;26.80;43.70;;;;;;4996546;28;20566;-67
2022/06/11 11:28:13;;;;;;;2.70;2.13;;;26.80;43.80;;;;;;4996598;28;20189;-68
2022/06/11 11:30:40;;;;;;;2.42;2.15;;;26.80;43.80;;;;;;4995227;28;20566;-67
2022/06/11 11:33:21;;;;;;;3.25;2.10;;;26.80;43.80;;;;;;4996135;28;20299;-67
2022/06/11 11:35:50;;;;;;;2.25;2.05;;;26.80;43.90;;;;;;4994997;28;20213;-67
2022/06/11 11:38:21;;;;;;;3.33;2.10;;;26.70;44.00;;;;;;4994835;28;20216;-67
2022/06/11 11:40:53;;;;;;;2.50;2.10;;;26.70;44.00;;;;;;4995213;28;20642;-67
2022/06/11 11:43:21;;;;;;;1.90;1.80;;;26.70;44.00;;;;;;4994661;28;20225;-67
2022/06/11 11:45:49;;;;;;;3.22;2.20;;;26.70;44.10;;;;;;4995082;28;20307;-67
2022/06/11 11:48:20;;;;;;;4.45;2.10;;;26.60;44.10;;;;;;4994775;28;20225;-67
2022/06/11 11:50:50;;;;;;;2.00;1.80;;;26.60;44.20;;;;;;4996300;28;20193;-67
2022/06/11 11:53:21;;;;;;;3.15;2.08;;;26.60;44.30;;;;;;4994608;28;20608;-67
2022/06/11 11:55:54;;;;;;;3.38;2.00;;;26.60;44.30;;;;;;4994537;28;20622;-67
2022/06/11 11:58:25;;;;;;;2.20;2.00;;;26.60;44.40;;;;;;4994658;28;20189;-66
2022/06/11 12:00:54;;;;;;;2.33;2.13;;;26.60;44.40;;;;;;4994494;28;20200;-67
2022/06/11 12:03:23;;;;;;;3.03;2.17;;;26.60;44.50;;;;;;4994455;28;20209;-66
2022/06/11 12:05:51;;;;;;;2.33;2.10;;;26.50;44.40;;;;;;4996021;28;20209;-68
2022/06/11 12:08:22;;;;;;;2.20;2.00;;;26.60;44.50;;;;;;4994908;28;20292;-67
2022/06/11 12:10:51;;;;;;;3.03;2.05;;;26.60;45.20;;;;;;4994723;28;20622;-67
2022/06/11 12:13:23;;;;;;;2.35;1.92;;;26.50;44.50;;;;;;4994465;28;20283;-67
2022/06/11 12:15:52;;;;;;;2.20;2.00;;;26.50;44.60;;;;;;4995879;28;20188;-67
2022/06/11 12:18:21;;;;;;;2.35;2.13;;;26.50;44.60;;;;;;4996014;28;20197;-67
2022/06/11 12:20:50;;;;;;;2.22;2.03;;;26.50;44.60;;;;;;4994268;28;20200;-67
2022/06/11 12:23:22;;;;;;;2.22;2.00;;;26.40;44.60;;;;;;4994346;28;20228;-68
2022/06/11 12:25:52;;;;;;;2.35;2.15;;;26.50;44.70;;;;;;4994222;28;20197;-67
2022/06/11 12:28:21;;;;;;;4.43;2.13;;;26.40;44.70;;;;;;4994017;28;20201;-67
2022/06/11 12:30:48;;;;;;;3.95;2.10;;;26.40;44.80;;;;;;4995020;28;20200;-67
2022/06/11 12:33:15;;;;;;;1.88;1.73;;;26.40;44.90;;;;;;4993729;28;20793;-66
2022/06/11 12:35:50;;;;;;;2.17;1.80;;;26.40;44.90;;;;;;4994969;28;20188;-67
2022/06/11 12:38:24;;;;;;;2.08;1.88;;;26.40;44.90;;;;;;4993220;28;20184;-67
2022/06/11 12:40:53;;;;;;;1.85;1.75;;;26.30;44.90;;;;;;4994832;28;20324;-66
2022/06/11 12:43:31;;;;;;;2.20;2.00;;;26.30;45.00;;;;;;4993718;28;20236;-65
2022/06/11 12:46:02;;;;;;;2.40;2.00;;;26.30;45.00;;;;;;4993607;28;20224;-67
2022/06/11 12:48:39;;;;;;;2.30;2.10;;;26.30;45.00;;;;;;4993505;28;20200;-67
2022/06/11 12:51:10;;;;;;;2.75;2.00;;;26.30;45.10;;;;;;4993339;28;20200;-67
2022/06/11 12:53:57;;;;;;;2.22;2.00;;;26.30;45.10;;;;;;4993713;28;20315;-66
2022/06/11 12:56:33;;;;;;;2.05;1.85;;;26.30;45.20;;;;;;4993524;28;20197;-67
2022/06/11 12:59:12;;;;;;;2.00;1.90;;;26.20;45.20;;;;;;4993415;28;20207;-67
2022/06/11 13:01:45;;;;;;;2.00;1.90;;;26.20;45.20;;;;;;4993227;28;20654;-67
2022/06/11 13:04:38;;;;;;;2.30;2.10;;;26.20;45.30;;;;;;4994322;28;20650;-67
2022/06/11 13:07:11;;;;;;;1.98;1.70;;;26.20;45.40;;;;;;4993578;28;20231;-66
2022/06/11 13:09:48;;;;;;;2.22;1.92;;;26.20;45.40;;;;;;4994621;28;20184;-66
2022/06/11 13:12:21;;;;;;;2.75;1.90;;;26.20;45.40;;;;;;4978518;28;20208;-67